Terminal Aerodrome Forecast
Issued by NWS

Current Version | Previous Version | Text Only | Print | Product List | Glossary Off
Versions: 1 2 3 4 5 6 7 8 9 10 11 12 13 14 15 16 17 18 19 20

944
FTUS41 KILN 170134 AAA
TAFLCK
TAF AMD
KLCK 170134Z 1702/1724 12005KT 4SM -SHRA BR OVC050
      TEMPO 1702/1704 1SM -SHRA OVC012
     FM170400 15007KT 5SM BR VCSH OVC050
     FM170700 16008KT 2SM -SHRA BR OVC005
     FM171600 23014KT P6SM OVC012
     FM171900 25014G22KT P6SM OVC025
      AMD NOT SKED=

USA.gov is the U.S. government's official web portal to all federal, state and local government web resources and services.